Time;durP1;ratioP1;P1;durP2;ratioP2;P2;SDS_P1;SDS_P2;PMS_P1;PMS_P2;Temp;Humidity;BMP_temperature;BMP_pressure;BME280_temperature;BME280_humidity;BME280_pressure;Samples;Min_cycle;Max_cycle;Signal;HPM_P1;HPM_P2
2023/08/14 00:00:17;;;;;;;3.65;1.50;;;;;;;16.54;100.00;100760.97;5176479;28;20026;-76
2023/08/14 00:02:48;;;;;;;5.38;2.00;;;;;;;16.49;100.00;100752.47;5177127;28;20022;-73
2023/08/14 00:05:18;;;;;;;10.23;2.00;;;;;;;16.57;100.00;100749.38;5176121;28;20025;-77
2023/08/14 00:07:48;;;;;;;4.15;1.90;;;;;;;16.65;100.00;100750.66;5192996;28;20057;-74
2023/08/14 00:10:19;;;;;;;3.80;1.70;;;;;;;16.71;100.00;100755.56;5190982;28;20109;-77
2023/08/14 00:12:49;;;;;;;4.82;1.85;;;;;;;16.71;100.00;100752.09;5192126;28;20025;-76
2023/08/14 00:15:19;;;;;;;5.25;2.15;;;;;;;16.62;100.00;100749.97;5194025;28;20029;-76
2023/08/14 00:17:51;;;;;;;3.60;2.03;;;;;;;16.55;100.00;100749.47;5191523;28;20519;-74
2023/08/14 00:20:21;;;;;;;4.43;2.17;;;;;;;16.52;100.00;100754.09;5191135;28;20067;-76
2023/08/14 00:22:51;;;;;;;5.80;1.90;;;;;;;16.49;100.00;100752.47;5189382;28;20391;-76
2023/08/14 00:25:22;;;;;;;4.43;1.90;;;;;;;16.64;100.00;100756.00;5194304;28;20487;-76
2023/08/14 00:27:53;;;;;;;5.70;1.70;;;;;;;16.56;100.00;100753.81;5192088;28;20056;-77
2023/08/14 00:30:23;;;;;;;3.65;1.50;;;;;;;16.41;100.00;100759.94;5189820;28;20574;-76
2023/08/14 00:32:54;;;;;;;3.42;1.30;;;;;;;16.37;100.00;100755.78;5177288;28;20120;-77
2023/08/14 00:35:24;;;;;;;2.55;1.38;;;;;;;16.33;100.00;100761.28;5176286;28;20068;-76
2023/08/14 00:37:54;;;;;;;4.03;1.42;;;;;;;16.24;100.00;100767.91;5176589;28;20025;-74
2023/08/14 00:40:25;;;;;;;3.55;1.77;;;;;;;16.36;100.00;100763.81;5189480;28;20033;-76
2023/08/14 00:42:55;;;;;;;2.88;1.80;;;;;;;16.26;100.00;100771.34;5193414;28;20079;-77
2023/08/14 00:45:25;;;;;;;2.25;1.60;;;;;;;16.35;100.00;100765.56;5203718;22;20045;-69
2023/08/14 00:47:56;;;;;;;2.42;1.58;;;;;;;16.26;100.00;100770.47;5224041;28;20534;-72
2023/08/14 00:50:27;;;;;;;3.85;1.85;;;;;;;16.19;100.00;100772.59;5217996;28;20039;-71
2023/08/14 00:53:00;;;;;;;5.47;2.17;;;;;;;16.23;100.00;100770.66;5232944;28;20482;-71
2023/08/14 00:55:31;;;;;;;5.68;2.13;;;;;;;16.19;100.00;100769.97;5232740;28;20478;-71
2023/08/14 00:58:02;;;;;;;4.22;2.25;;;;;;;16.26;100.00;100767.84;5211713;28;20017;-73
2023/08/14 01:00:34;;;;;;;5.18;2.03;;;;;;;16.19;100.00;100766.50;5216092;28;20419;-72
2023/08/14 01:03:06;;;;;;;8.25;2.17;;;;;;;16.11;100.00;100766.91;5196008;28;20029;-73
2023/08/14 01:05:36;;;;;;;4.43;2.10;;;;;;;16.10;100.00;100767.84;5197187;28;20125;-70
2023/08/14 01:08:06;;;;;;;3.88;2.10;;;;;;;16.13;100.00;100767.69;5214831;28;20104;-71
2023/08/14 01:11:02;;;;;;;3.28;1.85;;;;;;;16.13;100.00;100765.03;5212022;28;20429;-70
2023/08/14 01:13:40;;;;;;;5.70;1.90;;;;;;;16.20;100.00;100755.84;5211179;28;20279;-71
2023/08/14 01:16:16;;;;;;;5.05;1.80;;;;;;;16.34;100.00;100763.84;5209959;28;20284;-71
2023/08/14 01:18:47;;;;;;;5.45;2.22;;;;;;;16.39;100.00;100759.19;5210407;28;20025;-72
2023/08/14 01:21:45;;;;;;;6.25;2.13;;;;;;;16.30;100.00;100751.78;5198243;28;20036;-72
2023/08/14 01:24:40;;;;;;;3.38;2.05;;;;;;;16.30;100.00;100751.78;5215597;28;20025;-72
2023/08/14 01:27:11;;;;;;;5.57;1.88;;;;;;;16.26;100.00;100754.66;5209985;28;20029;-71
2023/08/14 01:29:42;;;;;;;5.47;2.10;;;;;;;16.14;100.00;100753.56;5214245;28;20029;-72
2023/08/14 01:32:12;;;;;;;4.88;2.05;;;;;;;16.14;100.00;100750.06;5197962;28;20025;-72
2023/08/14 01:34:43;;;;;;;7.97;1.80;;;;;;;16.04;100.00;100744.44;5213012;28;20029;-72
2023/08/14 01:37:26;;;;;;;7.72;2.20;;;;;;;16.11;100.00;100740.53;5195338;28;20048;-70
2023/08/14 01:40:06;;;;;;;6.03;2.00;;;;;;;16.08;100.00;100743.31;5206718;28;20017;-71
2023/08/14 01:42:38;;;;;;;3.67;1.85;;;;;;;15.97;100.00;100743.09;5210706;28;20410;-70
2023/08/14 01:45:13;;;;;;;3.50;1.80;;;;;;;15.94;100.00;100738.00;5212498;28;20483;-72
2023/08/14 01:47:46;;;;;;;5.32;1.92;;;;;;;15.98;100.00;100736.00;5195974;28;20033;-72
2023/08/14 01:50:18;;;;;;;6.47;1.92;;;;;;;16.03;100.00;100721.66;5208928;28;20074;-72
2023/08/14 01:52:48;;;;;;;5.10;1.73;;;;;;;16.13;100.00;100727.25;5210524;28;20016;-70
2023/08/14 01:55:19;;;;;;;3.60;1.90;;;;;;;16.09;100.00;100723.97;5215042;28;20503;-72
2023/08/14 01:57:49;;;;;;;4.60;1.80;;;;;;;16.03;100.00;100718.19;5195752;28;20020;-72
2023/08/14 02:00:20;;;;;;;5.47;1.80;;;;;;;16.03;100.00;100720.81;5208049;28;20032;-72
2023/08/14 02:02:51;;;;;;;4.63;2.00;;;;;;;16.10;100.00;100717.75;5214436;28;20151;-72
2023/08/14 02:05:21;;;;;;;3.85;1.80;;;;;;;16.12;100.00;100710.59;5216441;28;20104;-72
2023/08/14 02:07:51;;;;;;;5.72;2.00;;;;;;;16.31;100.00;100718.31;5216367;28;20483;-71
2023/08/14 02:10:22;;;;;;;7.57;2.20;;;;;;;16.30;100.00;100737.72;5212096;28;20025;-72
2023/08/14 02:12:52;;;;;;;6.35;2.03;;;;;;;16.13;100.00;100728.13;5216728;28;20025;-72
2023/08/14 02:15:22;;;;;;;4.43;1.90;;;;;;;16.14;100.00;100728.97;5215937;28;20029;-72
2023/08/14 02:17:53;;;;;;;4.43;2.00;;;;;;;16.15;100.00;100728.03;5208919;28;20012;-72
2023/08/14 02:20:24;;;;;;;4.70;2.00;;;;;;;16.10;100.00;100723.03;5198875;28;20029;-72
2023/08/14 02:22:55;;;;;;;6.80;2.30;;;;;;;16.24;100.00;100731.00;5213776;28;20616;-72
2023/08/14 02:25:25;;;;;;;6.03;1.92;;;;;;;16.25;100.00;100734.50;5212727;28;20128;-72
2023/08/14 02:27:55;;;;;;;9.52;2.00;;;;;;;16.14;100.00;100724.53;5213017;28;20493;-70
2023/08/14 02:30:25;;;;;;;6.82;1.90;;;;;;;16.17;100.00;100719.09;5201171;28;20036;-71
2023/08/14 02:32:56;;;;;;;6.10;2.05;;;;;;;16.33;100.00;100714.66;5217464;28;20483;-72
2023/08/14 02:35:27;;;;;;;10.93;2.08;;;;;;;16.32;100.00;100710.31;5215064;28;20140;-70
2023/08/14 02:37:57;;;;;;;5.30;2.25;;;;;;;16.24;100.00;100714.34;5214529;28;20071;-72
2023/08/14 02:40:28;;;;;;;3.92;2.08;;;;;;;16.23;100.00;100710.81;5214882;28;20040;-71
2023/08/14 02:43:02;;;;;;;4.53;2.42;;;;;;;16.22;100.00;100710.94;5214163;28;20099;-72
2023/08/14 02:45:33;;;;;;;5.60;1.77;;;;;;;16.18;100.00;100715.53;5218635;28;20064;-72
2023/08/14 02:48:03;;;;;;;4.50;1.88;;;;;;;16.13;100.00;100707.03;5216245;28;20120;-72
2023/08/14 02:50:33;;;;;;;6.50;1.80;;;;;;;16.14;100.00;100707.88;5214184;28;20033;-72
2023/08/14 02:53:04;;;;;;;5.82;1.98;;;;;;;16.16;100.00;100712.13;5215502;28;20108;-72
2023/08/14 02:55:34;;;;;;;2.95;1.88;;;;;;;16.21;100.00;100722.41;5210282;28;20498;-72
2023/08/14 02:58:04;;;;;;;4.05;1.80;;;;;;;16.18;100.00;100728.72;5210791;28;20025;-72
2023/08/14 03:00:35;;;;;;;3.78;1.83;;;;;;;16.23;100.00;100724.00;5213669;28;20542;-72
2023/08/14 03:03:05;;;;;;;5.93;2.28;;;;;;;16.31;100.00;100724.44;5197227;28;20035;-72
2023/08/14 03:05:37;;;;;;;4.65;1.80;;;;;;;16.39;100.00;100721.41;5213079;28;20029;-73
2023/08/14 03:08:07;;;;;;;3.35;1.95;;;;;;;16.32;100.00;100714.72;5211823;28;21143;-72
2023/08/14 03:10:37;;;;;;;5.75;2.05;;;;;;;16.37;100.00;100718.84;5210157;28;20039;-72
2023/08/14 03:13:09;;;;;;;8.20;1.98;;;;;;;16.42;100.00;100703.59;5198852;28;20544;-73
2023/08/14 03:15:39;;;;;;;4.65;2.10;;;;;;;16.35;100.00;100714.63;5216693;28;20078;-72
2023/08/14 03:18:09;;;;;;;3.47;1.90;;;;;;;16.35;100.00;100712.81;5213840;28;20017;-72
2023/08/14 03:20:39;;;;;;;2.47;1.77;;;;;;;16.23;100.00;100705.56;5217622;28;20028;-72
2023/08/14 03:23:10;;;;;;;4.43;1.92;;;;;;;16.18;100.00;100710.25;5198252;28;20475;-71
2023/08/14 03:25:40;;;;;;;3.75;1.80;;;;;;;16.16;100.00;100714.75;5216238;28;20486;-72
2023/08/14 03:28:11;;;;;;;5.30;2.10;;;;;;;16.06;100.00;100718.00;5214827;28;20028;-72
2023/08/14 03:30:42;;;;;;;6.25;2.20;;;;;;;16.08;100.00;100708.22;5218203;28;20036;-73
2023/08/14 03:33:12;;;;;;;4.43;1.90;;;;;;;16.10;100.00;100707.19;5216223;28;20044;-72
2023/08/14 03:35:43;;;;;;;4.32;1.92;;;;;;;16.05;100.00;100703.94;5216157;28;20053;-72
2023/08/14 03:38:13;;;;;;;3.97;1.98;;;;;;;16.09;100.00;100700.22;5214484;28;20186;-72
2023/08/14 03:40:43;;;;;;;7.50;1.95;;;;;;;15.94;100.00;100706.34;5216695;28;20078;-73
2023/08/14 03:43:14;;;;;;;7.40;1.98;;;;;;;15.88;100.00;100719.84;5215593;28;20087;-72
2023/08/14 03:45:44;;;;;;;7.45;2.05;;;;;;;15.83;100.00;100708.72;5198900;28;20525;-72
2023/08/14 03:48:15;;;;;;;10.48;1.92;;;;;;;15.84;100.00;100707.78;5209848;28;20032;-70
2023/08/14 03:50:49;;;;;;;3.90;2.17;;;;;;;15.84;100.00;100726.22;5216114;28;20037;-72
2023/08/14 03:53:19;;;;;;;9.85;2.38;;;;;;;15.80;100.00;100714.16;5216302;28;20036;-72
2023/08/14 03:55:49;;;;;;;6.45;2.00;;;;;;;15.93;100.00;100709.94;5214865;28;20025;-72
2023/08/14 03:58:20;;;;;;;6.82;2.10;;;;;;;16.00;100.00;100708.63;5182218;28;20037;-73
2023/08/14 04:00:50;;;;;;;5.78;2.10;;;;;;;16.00;100.00;100689.31;5216433;28;20024;-72
2023/08/14 04:03:21;;;;;;;8.50;2.50;;;;;;;15.98;100.00;100697.34;5216602;28;20391;-72
2023/08/14 04:05:56;;;;;;;4.40;2.17;;;;;;;15.95;100.00;100707.19;5197884;28;20063;-72
2023/08/14 04:08:27;;;;;;;5.60;2.10;;;;;;;15.99;100.00;100706.94;5216505;28;20024;-72
2023/08/14 04:10:57;;;;;;;4.22;2.10;;;;;;;15.94;100.00;100700.22;5212635;28;20021;-73
2023/08/14 04:13:28;;;;;;;4.63;1.75;;;;;;;16.10;100.00;100686.09;5216246;28;20049;-70
2023/08/14 04:16:03;;;;;;;3.08;1.73;;;;;;;15.97;100.00;100698.28;5212301;28;20503;-72
2023/08/14 04:18:33;;;;;;;5.60;2.10;;;;;;;15.96;100.00;100708.88;5215924;28;20071;-72
2023/08/14 04:21:04;;;;;;;8.73;1.88;;;;;;;15.95;100.00;100702.78;5215555;28;20029;-72
2023/08/14 04:23:34;;;;;;;3.85;1.95;;;;;;;15.98;100.00;100697.34;5196977;28;20591;-72
2023/08/14 04:26:04;;;;;;;6.47;2.03;;;;;;;15.95;100.00;100702.78;5213977;28;20112;-72
2023/08/14 04:28:35;;;;;;;5.50;1.92;;;;;;;15.96;100.00;100693.94;5198298;28;20029;-73
2023/08/14 04:31:05;;;;;;;6.13;2.13;;;;;;;16.00;100.00;100697.22;5215035;28;20032;-71
2023/08/14 04:33:35;;;;;;;7.35;2.00;;;;;;;16.03;100.00;100695.28;5215706;28;20025;-72
2023/08/14 04:36:05;;;;;;;4.63;1.83;;;;;;;16.10;100.00;100694.03;5213774;28;20071;-72
2023/08/14 04:38:36;;;;;;;5.55;1.95;;;;;;;16.22;100.00;100689.84;5216897;28;20025;-73
2023/08/14 04:41:06;;;;;;;5.30;1.95;;;;;;;16.21;100.00;100688.97;5214964;28;20108;-72
2023/08/14 04:43:36;;;;;;;5.22;1.90;;;;;;;16.34;100.00;100686.47;5214728;28;20035;-72
2023/08/14 04:46:11;;;;;;;3.90;1.73;;;;;;;16.40;100.00;100675.63;5197377;28;20486;-71
2023/08/14 04:48:41;;;;;;;9.68;2.45;;;;;;;16.55;100.00;100678.22;5215374;28;20070;-72
2023/08/14 04:51:12;;;;;;;7.45;1.90;;;;;;;16.55;100.00;100675.56;5213770;28;20490;-72
2023/08/14 04:53:42;;;;;;;3.25;1.80;;;;;;;16.48;100.00;100681.28;5215132;28;20025;-73
2023/08/14 04:56:12;;;;;;;4.18;2.17;;;;;;;16.55;100.00;100683.50;5214306;28;20446;-72
2023/08/14 04:58:44;;;;;;;3.90;2.00;;;;;;;16.96;100.00;100680.13;5214738;28;20098;-72
2023/08/14 05:01:14;;;;;;;9.02;1.90;;;;;;;16.99;100.00;100673.81;5213502;28;20053;-72
2023/08/14 05:03:45;;;;;;;2.60;1.55;;;;;;;17.32;100.00;100671.75;5214055;28;20107;-72
2023/08/14 05:06:15;;;;;;;3.80;1.70;;;;;;;17.26;100.00;100677.41;5213096;28;20049;-72
2023/08/14 05:08:46;;;;;;;8.00;1.80;;;;;;;17.28;100.00;100680.81;5214376;28;20029;-72
2023/08/14 05:11:16;;;;;;;4.15;1.65;;;;;;;17.25;100.00;100691.56;5214613;28;20154;-72
2023/08/14 05:13:47;;;;;;;4.63;1.80;;;;;;;17.55;100.00;100685.28;5212380;28;20028;-72
2023/08/14 05:16:19;;;;;;;6.32;1.75;;;;;;;19.36;100.00;100674.88;5214984;28;20071;-73
2023/08/14 05:18:49;;;;;;;2.42;1.25;;;;;;;19.90;100.00;100670.97;5197166;28;20654;-73
2023/08/14 05:21:20;;;;;;;4.68;1.30;;;;;;;19.88;98.47;100664.91;5213116;28;20037;-72
2023/08/14 05:23:50;;;;;;;4.77;1.33;;;;;;;19.84;100.00;100664.31;5195866;28;20068;-71
2023/08/14 05:26:20;;;;;;;4.63;1.50;;;;;;;20.29;100.00;100668.94;5212876;28;20386;-72
2023/08/14 05:28:51;;;;;;;4.43;1.45;;;;;;;21.31;94.82;100656.59;5212090;28;20494;-71
2023/08/14 05:31:21;;;;;;;4.13;1.33;;;;;;;21.01;94.84;100653.66;5211123;28;20033;-72
2023/08/14 05:33:51;;;;;;;2.85;1.45;;;;;;;21.75;92.63;100655.75;5209514;28;20056;-71
2023/08/14 05:36:21;;;;;;;2.03;1.10;;;;;;;22.92;89.25;100658.28;5192841;28;20056;-73
2023/08/14 05:38:52;;;;;;;5.93;1.50;;;;;;;24.25;80.66;100652.66;5198077;28;20016;-73
2023/08/14 05:41:22;;;;;;;4.00;1.40;;;;;;;24.83;79.26;100656.06;5199891;28;20032;-73
2023/08/14 05:43:53;;;;;;;3.33;1.20;;;;;;;26.34;77.55;100648.41;5216498;28;20605;-73
2023/08/14 05:46:24;;;;;;;4.50;1.30;;;;;;;27.21;69.43;100651.03;5215773;28;20075;-73
2023/08/14 05:48:54;;;;;;;3.13;1.23;;;;;;;25.93;76.40;100650.81;5217923;28;20028;-73
2023/08/14 05:51:24;;;;;;;2.13;1.00;;;;;;;27.62;68.70;100644.88;5220086;28;20394;-73
2023/08/14 05:53:55;;;;;;;4.15;1.13;;;;;;;29.63;64.13;100652.16;5217886;28;20283;-72
2023/08/14 05:56:25;;;;;;;1.98;0.90;;;;;;;27.47;70.17;100646.47;5200384;28;20024;-73
2023/08/14 05:58:57;;;;;;;3.90;1.10;;;;;;;28.11;67.98;100645.94;5197189;28;20021;-73
2023/08/14 06:01:27;;;;;;;2.78;1.00;;;;;;;28.78;65.57;100642.00;5217960;28;20275;-73
2023/08/14 06:03:58;;;;;;;3.50;1.13;;;;;;;26.87;69.62;100646.56;5216446;28;20032;-72
2023/08/14 06:06:28;;;;;;;3.80;1.13;;;;;;;25.04;78.70;100659.44;5217553;28;20029;-73
2023/08/14 06:08:58;;;;;;;2.37;1.20;;;;;;;24.29;81.73;100652.25;5199674;28;20506;-72
2023/08/14 06:11:29;;;;;;;3.03;1.20;;;;;;;23.22;88.43;100644.16;5196226;28;20287;-72
2023/08/14 06:14:00;;;;;;;2.92;1.30;;;;;;;22.92;91.50;100647.63;5215529;28;20851;-72
2023/08/14 06:16:30;;;;;;;3.58;1.25;;;;;;;22.37;96.68;100648.81;5214424;28;20082;-71
2023/08/14 06:19:00;;;;;;;5.30;1.70;;;;;;;22.21;95.22;100654.56;5215467;28;20024;-73
2023/08/14 06:21:31;;;;;;;2.85;1.55;;;;;;;21.90;100.00;100649.22;5216100;28;20298;-72
2023/08/14 06:24:01;;;;;;;5.00;1.23;;;;;;;22.25;100.00;100652.50;5216805;28;20417;-71
2023/08/14 06:26:31;;;;;;;4.05;1.17;;;;;;;22.91;98.20;100653.91;5197189;28;20025;-72
2023/08/14 06:29:02;;;;;;;5.10;1.40;;;;;;;22.81;96.65;100652.16;5199633;28;20029;-72
2023/08/14 06:31:32;;;;;;;3.13;1.48;;;;;;;23.33;91.66;100652.91;5216319;28;20025;-72
2023/08/14 06:34:02;;;;;;;3.57;1.20;;;;;;;24.50;87.07;100650.28;5213568;28;20993;-73
2023/08/14 06:36:33;;;;;;;3.83;1.10;;;;;;;24.05;90.51;100657.13;5214046;28;20306;-72
2023/08/14 06:39:03;;;;;;;2.30;1.03;;;;;;;24.57;86.36;100654.09;5197440;28;20029;-73
2023/08/14 06:41:33;;;;;;;5.82;1.50;;;;;;;24.39;88.36;100650.41;5214506;28;20293;-73
2023/08/14 06:44:07;;;;;;;2.90;1.03;;;;;;;24.00;89.01;100659.38;5213862;28;20037;-72
2023/08/14 06:46:38;;;;;;;5.90;1.33;;;;;;;24.19;89.16;100663.91;5244462;22;20321;-75
2023/08/14 06:49:10;;;;;;;5.38;1.50;;;;;;;24.17;88.05;100661.38;5270967;28;20040;-72
2023/08/14 06:51:40;;;;;;;3.35;1.10;;;;;;;25.69;81.56;100655.84;5275261;28;20299;-74
2023/08/14 06:54:11;;;;;;;3.03;1.30;;;;;;;27.28;75.54;100654.75;5274041;28;20493;-75
2023/08/14 06:56:41;;;;;;;4.28;1.30;;;;;;;27.73;74.88;100658.06;5271415;28;20285;-75
2023/08/14 06:59:11;;;;;;;2.83;1.20;;;;;;;28.63;71.26;100648.22;5258525;28;20032;-74
2023/08/14 07:01:42;;;;;;;2.35;0.93;;;;;;;29.20;69.76;100655.28;5256388;28;20278;-74
2023/08/14 07:04:12;;;;;;;2.13;1.00;;;;;;;28.50;72.14;100655.09;5255872;28;20052;-74
2023/08/14 07:06:42;;;;;;;3.90;1.13;;;;;;;28.21;71.84;100652.84;5253778;28;20281;-74
2023/08/14 07:09:16;;;;;;;4.93;1.30;;;;;;;27.83;73.34;100658.78;5249634;28;20353;-74
2023/08/14 07:11:46;;;;;;;3.95;1.13;;;;;;;29.03;71.95;100651.78;5256056;28;20102;-75
2023/08/14 07:14:16;;;;;;;2.88;1.17;;;;;;;28.56;73.34;100641.84;5253897;28;20028;-74
2023/08/14 07:16:48;;;;;;;3.10;0.90;;;;;;;29.12;71.80;100650.75;5250365;28;20032;-73
2023/08/14 07:19:18;;;;;;;2.35;0.90;;;;;;;30.07;69.73;100650.66;5252078;28;20718;-75
2023/08/14 07:21:48;;;;;;;3.67;1.07;;;;;;;30.69;67.17;100645.03;5257410;28;20028;-73
2023/08/14 07:24:19;;;;;;;2.37;1.10;;;;;;;30.05;65.90;100644.59;5255275;28;20304;-74
2023/08/14 07:26:49;;;;;;;1.90;0.93;;;;;;;31.22;62.82;100636.78;5256575;28;20369;-73
2023/08/14 07:29:19;;;;;;;2.97;1.05;;;;;;;30.49;62.88;100640.25;5253755;28;20294;-74
2023/08/14 07:31:50;;;;;;;4.38;1.20;;;;;;;30.54;62.78;100638.69;5251862;28;20055;-74
2023/08/14 07:34:20;;;;;;;2.37;1.00;;;;;;;31.18;63.41;100633.59;5253057;28;20031;-74
2023/08/14 07:36:50;;;;;;;2.00;0.83;;;;;;;30.67;61.70;100638.09;5255485;28;20278;-74
2023/08/14 07:39:21;;;;;;;1.52;0.98;;;;;;;30.31;63.40;100634.31;5252370;28;20061;-74
2023/08/14 07:41:51;;;;;;;5.15;1.00;;;;;;;30.59;62.48;100628.22;5258206;28;20085;-74
2023/08/14 07:44:21;;;;;;;5.03;1.03;;;;;;;30.73;62.37;100630.13;5256803;28;20035;-74
2023/08/14 07:46:52;;;;;;;2.17;0.93;;;;;;;31.05;61.57;100629.84;5251192;28;20301;-74
2023/08/14 07:49:22;;;;;;;3.95;1.10;;;;;;;31.60;60.53;100630.25;5250020;28;20056;-73
2023/08/14 07:51:52;;;;;;;2.80;1.00;;;;;;;30.35;63.36;100631.06;5248316;28;20035;-74
2023/08/14 07:54:22;;;;;;;4.10;1.10;;;;;;;31.75;61.75;100623.84;5257932;28;20282;-74
2023/08/14 07:56:53;;;;;;;4.40;1.10;;;;;;;31.92;60.92;100633.44;5254202;28;20297;-74
2023/08/14 07:59:23;;;;;;;1.70;0.80;;;;;;;31.67;61.11;100642.88;5254195;28;20028;-74
2023/08/14 08:01:53;;;;;;;3.80;1.00;;;;;;;31.30;60.84;100640.22;5256288;28;20282;-74
2023/08/14 08:04:24;;;;;;;2.55;1.10;;;;;;;30.69;63.10;100646.88;5255601;28;20500;-74
2023/08/14 08:06:54;;;;;;;1.75;0.85;;;;;;;31.61;61.63;100638.19;5254919;28;20501;-75
2023/08/14 08:09:24;;;;;;;3.47;0.95;;;;;;;32.46;59.75;100634.69;5249896;28;20482;-74
2023/08/14 08:11:55;;;;;;;1.70;1.00;;;;;;;32.03;60.02;100624.81;5257924;28;20023;-74
2023/08/14 08:14:26;;;;;;;3.03;1.15;;;;;;;32.27;60.02;100623.66;5259654;28;20281;-73
2023/08/14 08:16:56;;;;;;;2.67;1.05;;;;;;;33.14;57.79;100633.00;5256511;28;20531;-74
2023/08/14 08:19:27;;;;;;;1.67;1.00;;;;;;;32.29;60.45;100622.44;5251441;28;20054;-74
2023/08/14 08:21:57;;;;;;;3.17;1.00;;;;;;;33.14;57.43;100615.91;5255098;28;20270;-74
2023/08/14 08:24:27;;;;;;;2.37;0.93;;;;;;;33.11;56.58;100611.72;5257415;28;20031;-74
2023/08/14 08:26:57;;;;;;;2.30;1.10;;;;;;;31.87;57.81;100606.09;5254733;28;20786;-74
2023/08/14 08:29:28;;;;;;;3.13;1.17;;;;;;;30.79;61.47;100607.78;5256806;28;20297;-73
2023/08/14 08:31:58;;;;;;;2.50;1.03;;;;;;;32.73;57.49;100598.72;5256543;28;20500;-74
2023/08/14 08:34:28;;;;;;;2.00;1.10;;;;;;;33.57;56.00;100598.47;5253491;28;20270;-75
2023/08/14 08:36:58;;;;;;;1.60;0.90;;;;;;;34.47;53.96;100597.97;5256039;28;20493;-74
2023/08/14 08:39:29;;;;;;;1.73;0.77;;;;;;;34.68;54.33;100602.41;5257146;28;20281;-74
2023/08/14 08:42:01;;;;;;;2.27;0.90;;;;;;;33.93;54.69;100609.91;5251297;28;20028;-74
2023/08/14 08:44:32;;;;;;;3.90;0.90;;;;;;;34.16;54.68;100599.56;5248109;28;20280;-73
2023/08/14 08:47:08;;;;;;;3.75;1.00;;;;;;;34.20;56.59;100603.56;5249780;28;20475;-73
2023/08/14 08:49:40;;;;;;;3.30;1.25;;;;;;;35.15;52.60;100608.47;5251737;28;20405;-74
2023/08/14 08:52:10;;;;;;;1.75;0.90;;;;;;;34.40;54.19;100599.00;5252999;28;20097;-74
2023/08/14 08:54:41;;;;;;;10.02;1.20;;;;;;;34.41;56.10;100596.09;5253288;28;20444;-74
2023/08/14 08:57:11;;;;;;;12.90;2.25;;;;;;;33.83;55.67;100604.03;5249928;28;20070;-74
2023/08/14 08:59:43;;;;;;;1.30;0.90;;;;;;;34.50;54.24;100602.16;5248665;28;20028;-74
2023/08/14 09:02:13;;;;;;;3.40;1.25;;;;;;;34.49;53.09;100595.06;5252966;28;20510;-74
2023/08/14 09:04:44;;;;;;;5.57;1.20;;;;;;;34.06;55.78;100596.41;5255127;28;20032;-74
2023/08/14 09:07:15;;;;;;;5.97;1.17;;;;;;;33.51;55.58;100589.25;5252434;28;20397;-74
2023/08/14 09:09:45;;;;;;;3.63;1.10;;;;;;;33.67;56.49;100590.81;5250215;28;20029;-73
2023/08/14 09:12:16;;;;;;;3.42;1.10;;;;;;;33.10;57.32;100592.94;5255819;28;20418;-74
2023/08/14 09:15:04;;;;;;;3.20;1.35;;;;;;;33.30;57.63;100586.66;5257316;28;20028;-73
2023/08/14 09:17:35;;;;;;;3.85;1.25;;;;;;;32.24;60.37;100581.56;5251613;28;20020;-73
2023/08/14 09:20:08;;;;;;;2.70;0.98;;;;;;;31.44;61.26;100593.47;5253631;28;20044;-73
2023/08/14 09:22:39;;;;;;;4.55;0.98;;;;;;;31.28;62.59;100593.66;5254565;28;20389;-73
2023/08/14 09:25:11;;;;;;;2.28;1.13;;;;;;;29.97;64.18;100604.16;5255466;28;20456;-73
2023/08/14 09:27:43;;;;;;;3.10;1.33;;;;;;;30.33;65.66;100599.88;5250527;28;20053;-72
2023/08/14 09:30:13;;;;;;;4.88;1.50;;;;;;;30.80;64.94;100587.03;5248694;28;20035;-73
2023/08/14 09:32:44;;;;;;;2.92;1.15;;;;;;;30.12;66.94;100586.22;5255795;28;20511;-74
2023/08/14 09:35:14;;;;;;;3.50;1.13;;;;;;;29.98;63.52;100586.94;5256540;28;20032;-73
2023/08/14 09:37:46;;;;;;;3.55;1.38;;;;;;;30.11;64.21;100585.38;5253475;28;20408;-73
2023/08/14 09:40:17;;;;;;;2.80;1.15;;;;;;;30.26;63.55;100583.56;5254806;28;20094;-73
2023/08/14 09:42:49;;;;;;;2.88;1.10;;;;;;;30.10;68.17;100581.00;5252655;28;20064;-71
2023/08/14 09:45:23;;;;;;;2.08;1.20;;;;;;;29.60;67.00;100585.13;5255635;28;20040;-73
2023/08/14 09:48:00;;;;;;;3.42;1.20;;;;;;;29.52;67.21;100594.09;5253717;28;20024;-73
2023/08/14 09:50:31;;;;;;;2.25;1.30;;;;;;;29.25;69.33;100593.66;5252374;28;20106;-73
2023/08/14 09:53:02;;;;;;;4.03;1.25;;;;;;;29.29;70.01;100606.63;5254840;28;20043;-73
2023/08/14 09:55:33;;;;;;;5.13;1.50;;;;;;;28.54;70.32;100597.28;5254017;28;20274;-72
2023/08/14 09:58:04;;;;;;;3.45;1.30;;;;;;;29.05;69.87;100595.91;5248885;28;20024;-73
2023/08/14 10:00:37;;;;;;;4.18;1.50;;;;;;;29.48;69.87;100598.16;5250083;28;20040;-73
2023/08/14 10:03:09;;;;;;;2.42;1.20;;;;;;;29.36;70.91;100591.44;5253793;28;20651;-73
2023/08/14 10:05:40;;;;;;;2.80;1.13;;;;;;;29.16;69.79;100600.94;5254456;28;20028;-73
2023/08/14 10:08:12;;;;;;;2.65;1.00;;;;;;;29.18;73.48;100601.59;5253942;28;20099;-73
2023/08/14 10:10:44;;;;;;;3.47;1.42;;;;;;;29.27;71.25;100587.06;5254540;28;20145;-73
2023/08/14 10:13:16;;;;;;;3.08;1.38;;;;;;;29.20;72.25;100580.72;5254698;28;20032;-73
2023/08/14 10:15:52;;;;;;;2.13;1.15;;;;;;;29.23;72.95;100580.34;5254556;28;20393;-73
2023/08/14 10:18:23;;;;;;;4.65;1.20;;;;;;;28.92;74.30;100581.28;5254082;28;20464;-73
2023/08/14 10:20:57;;;;;;;6.07;2.30;;;;;;;28.60;75.83;100586.69;5250455;28;20071;-73
2023/08/14 10:23:29;;;;;;;4.10;1.42;;;;;;;28.58;76.14;100583.31;5255222;28;20413;-72
2023/08/14 10:25:59;;;;;;;3.17;1.40;;;;;;;28.68;74.79;100573.19;5251123;28;20044;-73
2023/08/14 10:28:31;;;;;;;3.65;1.40;;;;;;;28.31;73.26;100572.88;5250887;28;20056;-72
2023/08/14 10:31:02;;;;;;;1.92;1.17;;;;;;;28.51;76.23;100576.91;5250813;28;20039;-73
2023/08/14 10:33:33;;;;;;;2.38;1.05;;;;;;;28.39;71.34;100558.59;5255325;28;20466;-72
2023/08/14 10:36:04;;;;;;;7.65;1.45;;;;;;;28.79;72.01;100562.09;5258348;28;20097;-73
2023/08/14 10:38:42;;;;;;;3.17;1.50;;;;;;;29.06;73.53;100559.06;5256570;28;20020;-71
2023/08/14 10:41:17;;;;;;;3.17;1.20;;;;;;;28.67;71.88;100550.00;5255379;28;20350;-73
2023/08/14 10:43:50;;;;;;;2.28;1.20;;;;;;;29.07;70.47;100544.56;5256393;28;20082;-72
2023/08/14 10:46:20;;;;;;;3.08;1.40;;;;;;;29.34;72.05;100549.50;5257831;28;20032;-74
2023/08/14 10:48:51;;;;;;;3.80;1.50;;;;;;;29.50;69.49;100546.78;5252227;28;20371;-73
2023/08/14 10:51:21;;;;;;;2.20;1.08;;;;;;;29.73;69.91;100537.72;5258521;28;20555;-73
2023/08/14 10:54:06;;;;;;;3.28;1.33;;;;;;;30.00;70.84;100533.69;5250072;28;20193;-74
2023/08/14 10:56:46;;;;;;;2.90;1.30;;;;;;;29.95;68.50;100541.47;5253291;28;20032;-73
2023/08/14 10:59:20;;;;;;;2.88;1.23;;;;;;;29.82;67.12;100538.53;5248125;28;20191;-73
2023/08/14 11:02:26;;;;;;;7.05;1.40;;;;;;;29.58;69.22;100542.19;5254511;28;20036;-72
2023/08/14 11:05:00;;;;;;;3.33;1.30;;;;;;;29.54;71.46;100540.88;5172186;28;20034;-73
2023/08/14 11:07:34;;;;;;;2.87;1.27;;;;;;;29.74;70.63;100541.28;5243659;28;20081;-73
2023/08/14 11:10:05;;;;;;;3.95;1.27;;;;;;;29.45;68.69;100538.34;5253209;28;20274;-73
2023/08/14 11:12:35;;;;;;;4.30;1.30;;;;;;;29.57;68.07;100534.31;5254604;28;20131;-73
2023/08/14 11:15:06;;;;;;;3.28;1.30;;;;;;;29.72;68.41;100529.84;5256609;28;20540;-74
2023/08/14 11:17:37;;;;;;;4.38;1.52;;;;;;;29.52;68.04;100533.97;5250184;28;20048;-73
2023/08/14 11:20:11;;;;;;;3.00;1.40;;;;;;;29.64;69.43;100543.34;5258805;28;20631;-73
2023/08/14 11:22:45;;;;;;;5.35;1.30;;;;;;;29.18;67.70;100541.50;5253756;28;20043;-73
2023/08/14 11:25:16;;;;;;;2.80;1.20;;;;;;;29.64;69.25;100543.34;5256376;28;20024;-73
2023/08/14 11:27:51;;;;;;;3.78;1.75;;;;;;;29.66;71.98;100547.56;5251567;28;20097;-73
2023/08/14 11:30:24;;;;;;;3.42;1.23;;;;;;;29.74;70.77;100550.19;5251043;28;20024;-73
2023/08/14 11:32:54;;;;;;;3.13;1.38;;;;;;;29.10;70.95;100549.63;5250679;28;20135;-73
2023/08/14 11:35:26;;;;;;;7.43;1.40;;;;;;;29.47;72.44;100550.69;5248332;28;20465;-73
2023/08/14 11:37:57;;;;;;;3.25;1.33;;;;;;;29.61;71.56;100547.22;5250030;28;20059;-72
2023/08/14 11:40:27;;;;;;;2.22;1.15;;;;;;;29.90;74.98;100541.19;5253316;28;20024;-72